TimeMST,TemperatureF,Dew PointF,Humidity,Sea Level PressureIn,VisibilityMPH,Wind Direction,Wind SpeedMPH,Gust SpeedMPH,PrecipitationIn,Events,Conditions,WindDirDegrees,DateUTC
12:53 AM,39.9,12.9,33,29.81,10.0,SSW,3.5,-,N/A,,Clear,200,2012-12-07 07:53:00
1:53 AM,37.9,12.9,36,29.81,10.0,South,6.9,-,N/A,,Clear,180,2012-12-07 08:53:00
2:53 AM,37.9,14.0,38,29.81,10.0,WSW,4.6,-,N/A,,Clear,250,2012-12-07 09:53:00
3:53 AM,37.9,15.1,39,29.81,10.0,Calm,Calm,-,N/A,,Clear,0,2012-12-07 10:53:00
4:53 AM,36.0,14.0,41,29.84,10.0,Calm,Calm,-,N/A,,Clear,0,2012-12-07 11:53:00
5:53 AM,35.1,16.0,46,29.87,10.0,West,3.5,-,N/A,,Clear,280,2012-12-07 12:53:00
6:53 AM,37.0,16.0,42,29.89,10.0,SW,4.6,-,N/A,,Clear,220,2012-12-07 13:53:00
7:53 AM,37.9,17.1,43,29.91,10.0,SW,3.5,-,N/A,,Clear,220,2012-12-07 14:53:00
8:53 AM,48.0,19.0,32,29.91,10.0,SSW,3.5,-,N/A,,Clear,200,2012-12-07 15:53:00
9:53 AM,57.9,23.0,26,29.89,10.0,WSW,6.9,-,N/A,,Clear,240,2012-12-07 16:53:00
10:53 AM,63.0,26.1,25,29.87,10.0,WSW,6.9,-,N/A,,Clear,240,2012-12-07 17:53:00
11:53 AM,66.9,28.9,24,29.84,10.0,West,13.8,18.4,N/A,,Clear,280,2012-12-07 18:53:00
12:53 PM,68.0,30.9,25,29.80,10.0,West,15.0,24.2,N/A,,Clear,260,2012-12-07 19:53:00
1:53 PM,68.0,32.0,26,29.79,10.0,West,23.0,27.6,N/A,,Clear,260,2012-12-07 20:53:00
2:53 PM,66.9,32.0,27,29.78,10.0,West,18.4,28.8,N/A,,Clear,260,2012-12-07 21:53:00
3:53 PM,66.0,30.9,27,29.79,10.0,West,19.6,27.6,N/A,,Clear,260,2012-12-07 22:53:00
4:53 PM,63.0,30.0,29,29.81,10.0,West,13.8,24.2,N/A,,Clear,280,2012-12-07 23:53:00
6:53 PM,55.0,27.0,34,29.86,10.0,WNW,9.2,-,N/A,,Clear,300,2012-12-08 01:53:00
7:53 PM,53.1,28.0,38,29.87,10.0,WNW,9.2,-,N/A,,Clear,300,2012-12-08 02:53:00
8:53 PM,51.1,28.0,41,29.86,10.0,WNW,9.2,-,N/A,,Clear,300,2012-12-08 03:53:00
9:53 PM,46.0,26.1,46,29.85,10.0,WSW,9.2,-,N/A,,Clear,240,2012-12-08 04:53:00
10:53 PM,43.0,25.0,49,29.85,10.0,WSW,6.9,-,N/A,,Clear,250,2012-12-08 05:53:00
11:53 PM,44.1,26.1,49,29.84,10.0,SW,6.9,-,N/A,,Clear,230,2012-12-08 06:53:00